Main page
METAR-TAF:

METAR-TAF

Airports :

Reus Airport

Reus, Spain

latitude: 41-09N, longitude: 001-10E, elevation: 71 m

Current weather observation

The report was made 19 minutes ago, at 21:30 UTC
Wind 6 kt from the North, varying between North and East/Northeast
Temperature 8°C
Humidity 76%
Pressure 1022 hPa
Visibility 10 km or more

METAR: LERS 102130Z AUTO 01006KT 350V070 9999 NCD 08/04 Q1022

Time: 22:49 (21:49 UTC)

Forecast

The report was made 1 hour and 49 minutes ago, at 20:00 UTC
Forecast valid from 10 at 21 UTC to 11 at 21 UTC
Wind 4 kt from variable directions
Visibility 10 km or more
no clouds below 1500 m and no cumulonimbus
Becoming
from 11 at 10 UTC to 11 at 12 UTC
Wind 15 kt from the West/Northwest
Temporary
from 11 at 18 UTC to 11 at 21 UTC
Wind 20 kt from the North/Northeast with gusts up to 35 kt

TAF: LERS 102000Z 1021/1121 VRB04KT CAVOK TX16/1112Z TN04/1106Z BECMG 1110/1112 30015KT TEMPO 1118/1121 02020G35KT

Weather observations and forecasts of more than 4000 airports (METAR and TAF reports).

The available stations are represented by yellow and red dots on the map.

Hover mouse over dot to see the name of the station.

Then click to see weather observations and forecasts.

To change the map : click on the green buttons with a black cross to zoom in, on the green button with a dash to zoom out, or on the green arrows for adjacent maps.


METAR-TAF: